sensor_id;sensor_type;location;lat;lon;timestamp;P1;durP1;ratioP1;P2;durP2;ratioP2
10711;SDS011;5407;51.234;6.804;2023-03-01T00:02:21;1.80;;;1.70;;
10711;SDS011;5407;51.234;6.804;2023-03-01T00:04:48;2.00;;;1.80;;
10711;SDS011;5407;51.234;6.804;2023-03-01T00:07:15;1.60;;;1.50;;
10711;SDS011;5407;51.234;6.804;2023-03-01T00:09:43;1.60;;;1.50;;
10711;SDS011;5407;51.234;6.804;2023-03-01T00:12:11;1.63;;;1.52;;
10711;SDS011;5407;51.234;6.804;2023-03-01T00:14:38;1.77;;;1.67;;
10711;SDS011;5407;51.234;6.804;2023-03-01T00:17:05;2.78;;;1.63;;
10711;SDS011;5407;51.234;6.804;2023-03-01T00:19:32;1.60;;;1.50;;
10711;SDS011;5407;51.234;6.804;2023-03-01T00:21:59;1.80;;;1.70;;
10711;SDS011;5407;51.234;6.804;2023-03-01T00:24:25;1.73;;;1.63;;
10711;SDS011;5407;51.234;6.804;2023-03-01T00:26:54;1.70;;;1.60;;
10711;SDS011;5407;51.234;6.804;2023-03-01T00:29:21;1.70;;;1.60;;
10711;SDS011;5407;51.234;6.804;2023-03-01T00:31:49;2.88;;;1.63;;
10711;SDS011;5407;51.234;6.804;2023-03-01T00:34:16;1.70;;;1.60;;
10711;SDS011;5407;51.234;6.804;2023-03-01T00:36:43;1.80;;;1.70;;
10711;SDS011;5407;51.234;6.804;2023-03-01T00:39:11;2.30;;;1.60;;
10711;SDS011;5407;51.234;6.804;2023-03-01T00:41:40;1.80;;;1.70;;
10711;SDS011;5407;51.234;6.804;2023-03-01T00:44:09;2.33;;;1.98;;
10711;SDS011;5407;51.234;6.804;2023-03-01T00:46:36;2.35;;;1.80;;
10711;SDS011;5407;51.234;6.804;2023-03-01T00:49:03;1.67;;;1.58;;
10711;SDS011;5407;51.234;6.804;2023-03-01T00:51:30;2.88;;;1.90;;
10711;SDS011;5407;51.234;6.804;2023-03-01T00:53:58;2.10;;;1.90;;
10711;SDS011;5407;51.234;6.804;2023-03-01T00:56:27;1.70;;;1.60;;
10711;SDS011;5407;51.234;6.804;2023-03-01T00:58:54;1.80;;;1.70;;
10711;SDS011;5407;51.234;6.804;2023-03-01T01:01:23;2.10;;;1.90;;
10711;SDS011;5407;51.234;6.804;2023-03-01T01:03:53;1.95;;;1.80;;
10711;SDS011;5407;51.234;6.804;2023-03-01T01:06:22;1.90;;;1.80;;
10711;SDS011;5407;51.234;6.804;2023-03-01T01:08:50;2.33;;;1.70;;
10711;SDS011;5407;51.234;6.804;2023-03-01T01:11:19;1.70;;;1.60;;
10711;SDS011;5407;51.234;6.804;2023-03-01T01:13:46;1.73;;;1.63;;
10711;SDS011;5407;51.234;6.804;2023-03-01T01:16:15;2.30;;;2.10;;
10711;SDS011;5407;51.234;6.804;2023-03-01T01:18:45;1.80;;;1.70;;
10711;SDS011;5407;51.234;6.804;2023-03-01T01:21:13;1.90;;;1.80;;
10711;SDS011;5407;51.234;6.804;2023-03-01T01:23:41;1.80;;;1.70;;
10711;SDS011;5407;51.234;6.804;2023-03-01T01:26:10;2.00;;;1.80;;
10711;SDS011;5407;51.234;6.804;2023-03-01T01:28:39;2.47;;;2.00;;
10711;SDS011;5407;51.234;6.804;2023-03-01T01:31:06;2.00;;;1.90;;
10711;SDS011;5407;51.234;6.804;2023-03-01T01:33:34;1.83;;;1.73;;
10711;SDS011;5407;51.234;6.804;2023-03-01T01:36:04;2.38;;;2.17;;
10711;SDS011;5407;51.234;6.804;2023-03-01T01:38:31;1.80;;;1.70;;
10711;SDS011;5407;51.234;6.804;2023-03-01T01:40:58;1.90;;;1.70;;
10711;SDS011;5407;51.234;6.804;2023-03-01T01:43:26;2.13;;;1.92;;
10711;SDS011;5407;51.234;6.804;2023-03-01T01:45:55;2.10;;;1.90;;
10711;SDS011;5407;51.234;6.804;2023-03-01T01:48:24;2.20;;;2.00;;
10711;SDS011;5407;51.234;6.804;2023-03-01T01:51:06;1.85;;;1.75;;
10711;SDS011;5407;51.234;6.804;2023-03-01T01:53:38;1.88;;;1.77;;
10711;SDS011;5407;51.234;6.804;2023-03-01T01:56:06;2.05;;;1.80;;
10711;SDS011;5407;51.234;6.804;2023-03-01T01:58:37;1.80;;;1.70;;
10711;SDS011;5407;51.234;6.804;2023-03-01T02:01:05;1.65;;;1.55;;
10711;SDS011;5407;51.234;6.804;2023-03-01T02:03:32;1.95;;;1.80;;
10711;SDS011;5407;51.234;6.804;2023-03-01T02:06:03;1.90;;;1.80;;
10711;SDS011;5407;51.234;6.804;2023-03-01T02:08:35;1.98;;;1.80;;
10711;SDS011;5407;51.234;6.804;2023-03-01T02:11:04;1.80;;;1.70;;
10711;SDS011;5407;51.234;6.804;2023-03-01T02:13:32;2.10;;;1.90;;
10711;SDS011;5407;51.234;6.804;2023-03-01T02:16:02;2.10;;;1.90;;
10711;SDS011;5407;51.234;6.804;2023-03-01T02:18:29;2.53;;;1.80;;
10711;SDS011;5407;51.234;6.804;2023-03-01T02:21:01;4.43;;;1.73;;
10711;SDS011;5407;51.234;6.804;2023-03-01T02:23:36;2.42;;;2.00;;
10711;SDS011;5407;51.234;6.804;2023-03-01T02:26:05;2.10;;;1.90;;
10711;SDS011;5407;51.234;6.804;2023-03-01T02:28:40;2.10;;;1.90;;
10711;SDS011;5407;51.234;6.804;2023-03-01T02:31:10;2.58;;;1.90;;
10711;SDS011;5407;51.234;6.804;2023-03-01T02:33:58;1.83;;;1.73;;
10711;SDS011;5407;51.234;6.804;2023-03-01T02:36:29;1.95;;;1.80;;
10711;SDS011;5407;51.234;6.804;2023-03-01T02:39:00;2.10;;;1.90;;
10711;SDS011;5407;51.234;6.804;2023-03-01T02:41:30;2.10;;;1.88;;
10711;SDS011;5407;51.234;6.804;2023-03-01T02:44:02;2.35;;;1.80;;
10711;SDS011;5407;51.234;6.804;2023-03-01T02:46:29;2.08;;;1.83;;
10711;SDS011;5407;51.234;6.804;2023-03-01T02:48:56;1.88;;;1.77;;
10711;SDS011;5407;51.234;6.804;2023-03-01T02:51:38;1.83;;;1.73;;
10711;SDS011;5407;51.234;6.804;2023-03-01T02:54:13;2.13;;;1.95;;
10711;SDS011;5407;51.234;6.804;2023-03-01T02:56:47;1.77;;;1.67;;
10711;SDS011;5407;51.234;6.804;2023-03-01T02:59:19;1.98;;;1.80;;
10711;SDS011;5407;51.234;6.804;2023-03-01T03:01:50;2.00;;;1.90;;
10711;SDS011;5407;51.234;6.804;2023-03-01T03:04:17;2.10;;;1.90;;
10711;SDS011;5407;51.234;6.804;2023-03-01T03:06:48;1.95;;;1.85;;
10711;SDS011;5407;51.234;6.804;2023-03-01T03:09:17;2.00;;;1.90;;
10711;SDS011;5407;51.234;6.804;2023-03-01T03:11:45;1.83;;;1.73;;
10711;SDS011;5407;51.234;6.804;2023-03-01T03:14:13;2.83;;;2.08;;
10711;SDS011;5407;51.234;6.804;2023-03-01T03:16:45;2.13;;;2.03;;
10711;SDS011;5407;51.234;6.804;2023-03-01T03:19:14;1.95;;;1.85;;
10711;SDS011;5407;51.234;6.804;2023-03-01T03:21:42;1.92;;;1.80;;
10711;SDS011;5407;51.234;6.804;2023-03-01T03:24:09;2.20;;;2.00;;
10711;SDS011;5407;51.234;6.804;2023-03-01T03:26:36;2.13;;;1.92;;
10711;SDS011;5407;51.234;6.804;2023-03-01T03:29:03;2.20;;;1.98;;
10711;SDS011;5407;51.234;6.804;2023-03-01T03:31:30;2.10;;;1.90;;
10711;SDS011;5407;51.234;6.804;2023-03-01T03:33:58;2.40;;;2.20;;
10711;SDS011;5407;51.234;6.804;2023-03-01T03:36:25;2.22;;;2.03;;
10711;SDS011;5407;51.234;6.804;2023-03-01T03:38:52;2.35;;;2.15;;
10711;SDS011;5407;51.234;6.804;2023-03-01T03:41:19;2.30;;;2.10;;
10711;SDS011;5407;51.234;6.804;2023-03-01T03:43:46;2.08;;;1.90;;
10711;SDS011;5407;51.234;6.804;2023-03-01T03:46:14;2.20;;;2.00;;
10711;SDS011;5407;51.234;6.804;2023-03-01T03:48:43;2.15;;;1.80;;
10711;SDS011;5407;51.234;6.804;2023-03-01T03:51:12;2.00;;;1.90;;
10711;SDS011;5407;51.234;6.804;2023-03-01T03:53:41;2.15;;;1.98;;
10711;SDS011;5407;51.234;6.804;2023-03-01T03:56:09;2.33;;;2.13;;
10711;SDS011;5407;51.234;6.804;2023-03-01T03:58:36;1.85;;;1.75;;
10711;SDS011;5407;51.234;6.804;2023-03-01T04:01:03;2.42;;;2.20;;
10711;SDS011;5407;51.234;6.804;2023-03-01T04:03:30;2.20;;;2.00;;
10711;SDS011;5407;51.234;6.804;2023-03-01T04:05:58;1.88;;;1.77;;
10711;SDS011;5407;51.234;6.804;2023-03-01T04:08:27;2.22;;;2.03;;
10711;SDS011;5407;51.234;6.804;2023-03-01T04:10:57;2.05;;;1.85;;
10711;SDS011;5407;51.234;6.804;2023-03-01T04:13:25;2.45;;;2.25;;
10711;SDS011;5407;51.234;6.804;2023-03-01T04:15:53;2.28;;;2.08;;
10711;SDS011;5407;51.234;6.804;2023-03-01T04:18:21;2.28;;;2.08;;
10711;SDS011;5407;51.234;6.804;2023-03-01T04:20:49;3.15;;;2.00;;
10711;SDS011;5407;51.234;6.804;2023-03-01T04:23:20;2.15;;;1.90;;
10711;SDS011;5407;51.234;6.804;2023-03-01T04:25:49;2.85;;;1.92;;
10711;SDS011;5407;51.234;6.804;2023-03-01T04:28:20;2.00;;;1.90;;
10711;SDS011;5407;51.234;6.804;2023-03-01T04:30:49;4.03;;;2.58;;
10711;SDS011;5407;51.234;6.804;2023-03-01T04:33:16;13.07;;;3.83;;
10711;SDS011;5407;51.234;6.804;2023-03-01T04:35:42;8.25;;;3.63;;
10711;SDS011;5407;51.234;6.804;2023-03-01T04:38:09;7.22;;;3.30;;
10711;SDS011;5407;51.234;6.804;2023-03-01T04:40:37;16.33;;;3.92;;
10711;SDS011;5407;51.234;6.804;2023-03-01T04:43:05;8.68;;;3.80;;
10711;SDS011;5407;51.234;6.804;2023-03-01T04:45:32;9.98;;;3.20;;
10711;SDS011;5407;51.234;6.804;2023-03-01T04:48:00;7.43;;;3.55;;
10711;SDS011;5407;51.234;6.804;2023-03-01T04:50:28;5.90;;;3.35;;
10711;SDS011;5407;51.234;6.804;2023-03-01T04:52:55;7.95;;;3.30;;
10711;SDS011;5407;51.234;6.804;2023-03-01T04:55:24;7.18;;;3.50;;
10711;SDS011;5407;51.234;6.804;2023-03-01T04:57:52;5.93;;;3.13;;
10711;SDS011;5407;51.234;6.804;2023-03-01T05:00:21;4.63;;;3.00;;
10711;SDS011;5407;51.234;6.804;2023-03-01T05:02:49;4.82;;;3.00;;
10711;SDS011;5407;51.234;6.804;2023-03-01T05:05:23;7.95;;;3.03;;
10711;SDS011;5407;51.234;6.804;2023-03-01T05:07:53;5.00;;;3.10;;
10711;SDS011;5407;51.234;6.804;2023-03-01T05:10:20;5.13;;;2.85;;
10711;SDS011;5407;51.234;6.804;2023-03-01T05:12:47;4.63;;;3.00;;
10711;SDS011;5407;51.234;6.804;2023-03-01T05:15:14;4.50;;;2.80;;
10711;SDS011;5407;51.234;6.804;2023-03-01T05:17:43;4.93;;;3.15;;
10711;SDS011;5407;51.234;6.804;2023-03-01T05:20:11;4.88;;;2.95;;
10711;SDS011;5407;51.234;6.804;2023-03-01T05:22:38;4.05;;;2.72;;
10711;SDS011;5407;51.234;6.804;2023-03-01T05:25:05;5.07;;;2.60;;
10711;SDS011;5407;51.234;6.804;2023-03-01T05:27:33;3.88;;;2.83;;
10711;SDS011;5407;51.234;6.804;2023-03-01T05:30:00;3.90;;;2.60;;
10711;SDS011;5407;51.234;6.804;2023-03-01T05:32:39;5.00;;;3.03;;
10711;SDS011;5407;51.234;6.804;2023-03-01T05:35:09;3.60;;;2.70;;
10711;SDS011;5407;51.234;6.804;2023-03-01T05:37:39;3.85;;;2.60;;
10711;SDS011;5407;51.234;6.804;2023-03-01T05:40:09;3.13;;;2.53;;
10711;SDS011;5407;51.234;6.804;2023-03-01T05:42:43;4.78;;;2.55;;
10711;SDS011;5407;51.234;6.804;2023-03-01T05:45:11;3.40;;;2.72;;
10711;SDS011;5407;51.234;6.804;2023-03-01T05:47:39;3.25;;;2.50;;
10711;SDS011;5407;51.234;6.804;2023-03-01T05:50:11;2.80;;;2.30;;
10711;SDS011;5407;51.234;6.804;2023-03-01T05:52:43;3.22;;;2.40;;
10711;SDS011;5407;51.234;6.804;2023-03-01T05:55:10;3.85;;;2.70;;
10711;SDS011;5407;51.234;6.804;2023-03-01T05:57:37;2.75;;;2.42;;
10711;SDS011;5407;51.234;6.804;2023-03-01T06:00:04;3.75;;;2.65;;
10711;SDS011;5407;51.234;6.804;2023-03-01T06:02:37;2.92;;;2.60;;
10711;SDS011;5407;51.234;6.804;2023-03-01T06:05:05;3.55;;;2.50;;
10711;SDS011;5407;51.234;6.804;2023-03-01T06:07:35;5.18;;;2.40;;
10711;SDS011;5407;51.234;6.804;2023-03-01T06:10:02;3.00;;;2.70;;
10711;SDS011;5407;51.234;6.804;2023-03-01T06:12:30;2.53;;;2.33;;
10711;SDS011;5407;51.234;6.804;2023-03-01T06:14:58;3.08;;;2.22;;
10711;SDS011;5407;51.234;6.804;2023-03-01T06:17:25;3.03;;;2.63;;
10711;SDS011;5407;51.234;6.804;2023-03-01T06:19:52;3.00;;;2.40;;
10711;SDS011;5407;51.234;6.804;2023-03-01T06:22:19;3.63;;;2.60;;
10711;SDS011;5407;51.234;6.804;2023-03-01T06:24:47;2.63;;;2.42;;
10711;SDS011;5407;51.234;6.804;2023-03-01T06:27:14;3.13;;;2.40;;
10711;SDS011;5407;51.234;6.804;2023-03-01T06:29:41;2.90;;;2.60;;
10711;SDS011;5407;51.234;6.804;2023-03-01T06:32:08;2.90;;;2.40;;
10711;SDS011;5407;51.234;6.804;2023-03-01T06:34:35;2.53;;;2.33;;
10711;SDS011;5407;51.234;6.804;2023-03-01T06:37:01;3.13;;;2.40;;
10711;SDS011;5407;51.234;6.804;2023-03-01T06:39:30;3.80;;;2.47;;
10711;SDS011;5407;51.234;6.804;2023-03-01T06:41:58;2.83;;;2.55;;
10711;SDS011;5407;51.234;6.804;2023-03-01T06:44:25;3.58;;;2.60;;
10711;SDS011;5407;51.234;6.804;2023-03-01T06:46:52;6.45;;;2.40;;
10711;SDS011;5407;51.234;6.804;2023-03-01T06:49:19;2.60;;;2.40;;
10711;SDS011;5407;51.234;6.804;2023-03-01T06:51:46;3.03;;;2.40;;
10711;SDS011;5407;51.234;6.804;2023-03-01T06:54:13;3.42;;;2.53;;
10711;SDS011;5407;51.234;6.804;2023-03-01T06:56:39;2.75;;;2.55;;
10711;SDS011;5407;51.234;6.804;2023-03-01T06:59:08;3.42;;;2.30;;
10711;SDS011;5407;51.234;6.804;2023-03-01T07:01:34;6.10;;;2.97;;
10711;SDS011;5407;51.234;6.804;2023-03-01T07:04:01;6.43;;;2.78;;
10711;SDS011;5407;51.234;6.804;2023-03-01T07:06:28;4.88;;;2.50;;
10711;SDS011;5407;51.234;6.804;2023-03-01T07:08:55;3.50;;;2.80;;
10711;SDS011;5407;51.234;6.804;2023-03-01T07:11:22;4.63;;;2.80;;
10711;SDS011;5407;51.234;6.804;2023-03-01T07:13:48;6.75;;;3.00;;
10711;SDS011;5407;51.234;6.804;2023-03-01T07:16:17;9.43;;;3.22;;
10711;SDS011;5407;51.234;6.804;2023-03-01T07:18:45;8.52;;;2.95;;
10711;SDS011;5407;51.234;6.804;2023-03-01T07:21:12;8.77;;;2.67;;
10711;SDS011;5407;51.234;6.804;2023-03-01T07:23:40;6.90;;;2.78;;
10711;SDS011;5407;51.234;6.804;2023-03-01T07:26:07;20.27;;;3.28;;
10711;SDS011;5407;51.234;6.804;2023-03-01T07:28:34;6.53;;;2.95;;
10711;SDS011;5407;51.234;6.804;2023-03-01T07:31:03;11.63;;;2.88;;
10711;SDS011;5407;51.234;6.804;2023-03-01T07:33:32;8.18;;;3.13;;
10711;SDS011;5407;51.234;6.804;2023-03-01T07:36:00;11.32;;;3.00;;
10711;SDS011;5407;51.234;6.804;2023-03-01T07:38:28;8.07;;;2.80;;
10711;SDS011;5407;51.234;6.804;2023-03-01T07:40:57;8.57;;;2.70;;
10711;SDS011;5407;51.234;6.804;2023-03-01T07:43:25;6.47;;;2.80;;
10711;SDS011;5407;51.234;6.804;2023-03-01T07:45:52;5.97;;;2.72;;
10711;SDS011;5407;51.234;6.804;2023-03-01T07:48:18;6.32;;;2.70;;
10711;SDS011;5407;51.234;6.804;2023-03-01T07:50:46;9.68;;;2.97;;
10711;SDS011;5407;51.234;6.804;2023-03-01T07:53:13;3.05;;;2.35;;
10711;SDS011;5407;51.234;6.804;2023-03-01T07:55:40;5.38;;;2.85;;
10711;SDS011;5407;51.234;6.804;2023-03-01T07:58:07;4.75;;;2.80;;
10711;SDS011;5407;51.234;6.804;2023-03-01T08:00:34;14.82;;;2.90;;
10711;SDS011;5407;51.234;6.804;2023-03-01T08:03:01;6.95;;;2.88;;
10711;SDS011;5407;51.234;6.804;2023-03-01T08:05:28;3.90;;;2.40;;
10711;SDS011;5407;51.234;6.804;2023-03-01T08:07:57;4.18;;;2.42;;
10711;SDS011;5407;51.234;6.804;2023-03-01T08:10:24;4.40;;;2.55;;
10711;SDS011;5407;51.234;6.804;2023-03-01T08:12:51;3.42;;;2.38;;
10711;SDS011;5407;51.234;6.804;2023-03-01T08:15:18;2.58;;;2.30;;
10711;SDS011;5407;51.234;6.804;2023-03-01T08:17:46;6.15;;;2.65;;
10711;SDS011;5407;51.234;6.804;2023-03-01T08:20:15;2.97;;;2.67;;
10711;SDS011;5407;51.234;6.804;2023-03-01T08:22:42;2.95;;;2.30;;
10711;SDS011;5407;51.234;6.804;2023-03-01T08:25:10;5.32;;;2.60;;
10711;SDS011;5407;51.234;6.804;2023-03-01T08:27:37;2.50;;;2.13;;
10711;SDS011;5407;51.234;6.804;2023-03-01T08:30:05;3.95;;;2.70;;
10711;SDS011;5407;51.234;6.804;2023-03-01T08:32:35;3.90;;;2.75;;
10711;SDS011;5407;51.234;6.804;2023-03-01T08:35:03;3.83;;;2.35;;
10711;SDS011;5407;51.234;6.804;2023-03-01T08:37:30;2.95;;;2.40;;
10711;SDS011;5407;51.234;6.804;2023-03-01T08:39:58;4.32;;;2.50;;
10711;SDS011;5407;51.234;6.804;2023-03-01T08:42:26;3.13;;;2.35;;
10711;SDS011;5407;51.234;6.804;2023-03-01T08:44:54;3.35;;;2.38;;
10711;SDS011;5407;51.234;6.804;2023-03-01T08:47:21;3.67;;;2.40;;
10711;SDS011;5407;51.234;6.804;2023-03-01T08:49:49;4.10;;;2.70;;
10711;SDS011;5407;51.234;6.804;2023-03-01T08:52:16;2.70;;;2.35;;
10711;SDS011;5407;51.234;6.804;2023-03-01T08:54:43;4.90;;;2.22;;
10711;SDS011;5407;51.234;6.804;2023-03-01T08:57:10;2.72;;;2.30;;
10711;SDS011;5407;51.234;6.804;2023-03-01T08:59:39;2.30;;;2.10;;
10711;SDS011;5407;51.234;6.804;2023-03-01T09:02:08;2.72;;;2.50;;
10711;SDS011;5407;51.234;6.804;2023-03-01T09:04:38;2.30;;;2.10;;
10711;SDS011;5407;51.234;6.804;2023-03-01T09:07:05;2.50;;;2.30;;
10711;SDS011;5407;51.234;6.804;2023-03-01T09:09:32;2.50;;;2.30;;
10711;SDS011;5407;51.234;6.804;2023-03-01T09:11:59;2.42;;;2.20;;
10711;SDS011;5407;51.234;6.804;2023-03-01T09:14:26;2.53;;;2.28;;
10711;SDS011;5407;51.234;6.804;2023-03-01T09:16:54;3.08;;;2.13;;
10711;SDS011;5407;51.234;6.804;2023-03-01T09:19:21;2.40;;;2.20;;
10711;SDS011;5407;51.234;6.804;2023-03-01T09:21:48;2.38;;;2.17;;
10711;SDS011;5407;51.234;6.804;2023-03-01T09:24:19;2.50;;;2.30;;
10711;SDS011;5407;51.234;6.804;2023-03-01T09:26:47;2.67;;;2.33;;
10711;SDS011;5407;51.234;6.804;2023-03-01T09:29:14;2.80;;;2.17;;
10711;SDS011;5407;51.234;6.804;2023-03-01T09:31:41;2.75;;;2.20;;
10711;SDS011;5407;51.234;6.804;2023-03-01T09:34:09;2.90;;;2.40;;
10711;SDS011;5407;51.234;6.804;2023-03-01T09:36:36;3.33;;;2.60;;
10711;SDS011;5407;51.234;6.804;2023-03-01T09:39:03;2.40;;;2.20;;
10711;SDS011;5407;51.234;6.804;2023-03-01T09:41:42;3.70;;;2.20;;
10711;SDS011;5407;51.234;6.804;2023-03-01T09:44:16;2.15;;;2.00;;
10711;SDS011;5407;51.234;6.804;2023-03-01T09:46:50;2.30;;;2.10;;
10711;SDS011;5407;51.234;6.804;2023-03-01T09:49:19;2.45;;;2.10;;
10711;SDS011;5407;51.234;6.804;2023-03-01T09:51:53;2.25;;;2.05;;
10711;SDS011;5407;51.234;6.804;2023-03-01T09:54:23;2.30;;;2.10;;
10711;SDS011;5407;51.234;6.804;2023-03-01T09:56:57;2.20;;;2.00;;
10711;SDS011;5407;51.234;6.804;2023-03-01T09:59:33;2.75;;;2.10;;
10711;SDS011;5407;51.234;6.804;2023-03-01T10:02:16;2.17;;;1.98;;
10711;SDS011;5407;51.234;6.804;2023-03-01T10:04:51;2.20;;;2.00;;
10711;SDS011;5407;51.234;6.804;2023-03-01T10:07:22;2.08;;;1.92;;
10711;SDS011;5407;51.234;6.804;2023-03-01T10:09:57;2.22;;;2.03;;
10711;SDS011;5407;51.234;6.804;2023-03-01T10:12:27;2.30;;;2.10;;
10711;SDS011;5407;51.234;6.804;2023-03-01T10:15:02;2.45;;;2.05;;
10711;SDS011;5407;51.234;6.804;2023-03-01T10:17:36;2.10;;;2.00;;
10711;SDS011;5407;51.234;6.804;2023-03-01T10:20:19;2.45;;;2.25;;
10711;SDS011;5407;51.234;6.804;2023-03-01T10:22:47;2.63;;;2.10;;
10711;SDS011;5407;51.234;6.804;2023-03-01T10:25:21;2.22;;;2.03;;
10711;SDS011;5407;51.234;6.804;2023-03-01T10:28:01;2.20;;;2.00;;
10711;SDS011;5407;51.234;6.804;2023-03-01T10:30:32;2.53;;;1.98;;
10711;SDS011;5407;51.234;6.804;2023-03-01T10:33:05;2.28;;;2.08;;
10711;SDS011;5407;51.234;6.804;2023-03-01T10:35:41;2.60;;;2.35;;
10711;SDS011;5407;51.234;6.804;2023-03-01T10:38:09;3.85;;;2.30;;
10711;SDS011;5407;51.234;6.804;2023-03-01T10:40:49;2.33;;;2.15;;
10711;SDS011;5407;51.234;6.804;2023-03-01T10:43:18;2.38;;;2.17;;
10711;SDS011;5407;51.234;6.804;2023-03-01T10:45:45;2.35;;;2.15;;
10711;SDS011;5407;51.234;6.804;2023-03-01T10:48:13;2.70;;;2.20;;
10711;SDS011;5407;51.234;6.804;2023-03-01T10:50:43;2.83;;;1.98;;
10711;SDS011;5407;51.234;6.804;2023-03-01T10:53:22;2.30;;;2.10;;
10711;SDS011;5407;51.234;6.804;2023-03-01T10:55:56;2.90;;;2.60;;
10711;SDS011;5407;51.234;6.804;2023-03-01T10:58:25;2.70;;;2.30;;
10711;SDS011;5407;51.234;6.804;2023-03-01T11:00:54;2.33;;;2.13;;
10711;SDS011;5407;51.234;6.804;2023-03-01T11:03:23;2.85;;;2.20;;
10711;SDS011;5407;51.234;6.804;2023-03-01T11:05:57;2.42;;;2.22;;
10711;SDS011;5407;51.234;6.804;2023-03-01T11:08:35;2.22;;;2.03;;
10711;SDS011;5407;51.234;6.804;2023-03-01T11:11:06;2.30;;;2.10;;
10711;SDS011;5407;51.234;6.804;2023-03-01T11:13:40;2.28;;;2.08;;
10711;SDS011;5407;51.234;6.804;2023-03-01T11:16:22;2.20;;;2.05;;
10711;SDS011;5407;51.234;6.804;2023-03-01T11:19:12;2.10;;;1.92;;
10711;SDS011;5407;51.234;6.804;2023-03-01T11:21:44;2.25;;;2.05;;
10711;SDS011;5407;51.234;6.804;2023-03-01T11:24:19;3.00;;;2.20;;
10711;SDS011;5407;51.234;6.804;2023-03-01T11:26:52;2.33;;;2.13;;
10711;SDS011;5407;51.234;6.804;2023-03-01T11:29:24;2.05;;;1.95;;
10711;SDS011;5407;51.234;6.804;2023-03-01T11:31:56;2.50;;;2.20;;
10711;SDS011;5407;51.234;6.804;2023-03-01T11:34:31;2.45;;;2.25;;
10711;SDS011;5407;51.234;6.804;2023-03-01T11:40:03;2.28;;;2.08;;
10711;SDS011;5407;51.234;6.804;2023-03-01T11:42:42;2.70;;;2.05;;
10711;SDS011;5407;51.234;6.804;2023-03-01T11:45:15;2.30;;;2.10;;
10711;SDS011;5407;51.234;6.804;2023-03-01T11:47:55;2.17;;;1.98;;
10711;SDS011;5407;51.234;6.804;2023-03-01T11:50:31;2.03;;;1.90;;
10711;SDS011;5407;51.234;6.804;2023-03-01T11:56:03;1.85;;;1.75;;
10711;SDS011;5407;51.234;6.804;2023-03-01T11:58:49;2.10;;;1.90;;
10711;SDS011;5407;51.234;6.804;2023-03-01T12:01:37;1.80;;;1.70;;
10711;SDS011;5407;51.234;6.804;2023-03-01T12:04:19;2.10;;;1.90;;
10711;SDS011;5407;51.234;6.804;2023-03-01T12:07:05;2.00;;;1.90;;
10711;SDS011;5407;51.234;6.804;2023-03-01T12:09:51;1.95;;;1.75;;
10711;SDS011;5407;51.234;6.804;2023-03-01T12:12:30;2.22;;;1.73;;
10711;SDS011;5407;51.234;6.804;2023-03-01T12:15:10;2.05;;;1.85;;
10711;SDS011;5407;51.234;6.804;2023-03-01T12:18:05;1.70;;;1.60;;
10711;SDS011;5407;51.234;6.804;2023-03-01T12:20:46;1.75;;;1.65;;
10711;SDS011;5407;51.234;6.804;2023-03-01T12:23:45;2.17;;;1.98;;
10711;SDS011;5407;51.234;6.804;2023-03-01T12:26:32;1.80;;;1.70;;
10711;SDS011;5407;51.234;6.804;2023-03-01T12:29:10;2.33;;;1.85;;
10711;SDS011;5407;51.234;6.804;2023-03-01T12:31:58;1.98;;;1.80;;
10711;SDS011;5407;51.234;6.804;2023-03-01T12:35:01;1.73;;;1.63;;
10711;SDS011;5407;51.234;6.804;2023-03-01T12:37:54;2.40;;;1.90;;
10711;SDS011;5407;51.234;6.804;2023-03-01T12:40:28;1.67;;;1.58;;
10711;SDS011;5407;51.234;6.804;2023-03-01T12:43:13;2.08;;;1.70;;
10711;SDS011;5407;51.234;6.804;2023-03-01T12:45:51;1.63;;;1.52;;
10711;SDS011;5407;51.234;6.804;2023-03-01T12:48:36;1.80;;;1.70;;
10711;SDS011;5407;51.234;6.804;2023-03-01T12:51:10;1.60;;;1.50;;
10711;SDS011;5407;51.234;6.804;2023-03-01T12:53:41;1.65;;;1.50;;
10711;SDS011;5407;51.234;6.804;2023-03-01T12:56:11;1.98;;;1.70;;
10711;SDS011;5407;51.234;6.804;2023-03-01T12:58:45;1.73;;;1.63;;
10711;SDS011;5407;51.234;6.804;2023-03-01T13:01:22;2.00;;;1.80;;
10711;SDS011;5407;51.234;6.804;2023-03-01T13:04:02;1.77;;;1.67;;
10711;SDS011;5407;51.234;6.804;2023-03-01T13:06:40;1.60;;;1.50;;
10711;SDS011;5407;51.234;6.804;2023-03-01T13:09:15;1.60;;;1.50;;
10711;SDS011;5407;51.234;6.804;2023-03-01T13:11:49;1.50;;;1.40;;
10711;SDS011;5407;51.234;6.804;2023-03-01T13:14:36;1.65;;;1.55;;
10711;SDS011;5407;51.234;6.804;2023-03-01T13:20:11;1.67;;;1.52;;
10711;SDS011;5407;51.234;6.804;2023-03-01T13:22:39;1.70;;;1.60;;
10711;SDS011;5407;51.234;6.804;2023-03-01T13:25:13;1.73;;;1.60;;
10711;SDS011;5407;51.234;6.804;2023-03-01T13:27:43;1.70;;;1.60;;
10711;SDS011;5407;51.234;6.804;2023-03-01T13:33:33;1.70;;;1.60;;
10711;SDS011;5407;51.234;6.804;2023-03-01T13:36:11;1.80;;;1.70;;
10711;SDS011;5407;51.234;6.804;2023-03-01T13:39:27;1.77;;;1.65;;
10711;SDS011;5407;51.234;6.804;2023-03-01T13:41:58;1.73;;;1.60;;
10711;SDS011;5407;51.234;6.804;2023-03-01T13:44:26;1.58;;;1.48;;
10711;SDS011;5407;51.234;6.804;2023-03-01T13:46:59;1.55;;;1.45;;
10711;SDS011;5407;51.234;6.804;2023-03-01T13:49:36;1.50;;;1.40;;
10711;SDS011;5407;51.234;6.804;2023-03-01T13:52:15;1.77;;;1.67;;
10711;SDS011;5407;51.234;6.804;2023-03-01T13:54:58;2.03;;;1.83;;
10711;SDS011;5407;51.234;6.804;2023-03-01T13:57:30;1.60;;;1.50;;
10711;SDS011;5407;51.234;6.804;2023-03-01T14:00:02;1.65;;;1.55;;
10711;SDS011;5407;51.234;6.804;2023-03-01T14:02:31;1.70;;;1.60;;
10711;SDS011;5407;51.234;6.804;2023-03-01T14:04:59;1.73;;;1.63;;
10711;SDS011;5407;51.234;6.804;2023-03-01T14:07:27;1.70;;;1.60;;
10711;SDS011;5407;51.234;6.804;2023-03-01T14:09:56;1.58;;;1.48;;
10711;SDS011;5407;51.234;6.804;2023-03-01T14:12:26;1.70;;;1.60;;
10711;SDS011;5407;51.234;6.804;2023-03-01T14:15:06;1.67;;;1.58;;
10711;SDS011;5407;51.234;6.804;2023-03-01T14:17:57;1.65;;;1.55;;
10711;SDS011;5407;51.234;6.804;2023-03-01T14:20:30;1.70;;;1.60;;
10711;SDS011;5407;51.234;6.804;2023-03-01T14:23:01;1.67;;;1.58;;
10711;SDS011;5407;51.234;6.804;2023-03-01T14:25:35;1.33;;;1.20;;
10711;SDS011;5407;51.234;6.804;2023-03-01T14:28:10;1.63;;;1.52;;
10711;SDS011;5407;51.234;6.804;2023-03-01T14:30:43;1.50;;;1.40;;
10711;SDS011;5407;51.234;6.804;2023-03-01T14:33:19;1.60;;;1.50;;
10711;SDS011;5407;51.234;6.804;2023-03-01T14:35:52;1.60;;;1.50;;
10711;SDS011;5407;51.234;6.804;2023-03-01T14:38:21;1.50;;;1.40;;
10711;SDS011;5407;51.234;6.804;2023-03-01T14:40:50;1.58;;;1.48;;
10711;SDS011;5407;51.234;6.804;2023-03-01T14:43:22;1.52;;;1.42;;
10711;SDS011;5407;51.234;6.804;2023-03-01T14:45:50;1.50;;;1.40;;
10711;SDS011;5407;51.234;6.804;2023-03-01T14:48:19;1.55;;;1.45;;
10711;SDS011;5407;51.234;6.804;2023-03-01T14:50:46;1.48;;;1.38;;
10711;SDS011;5407;51.234;6.804;2023-03-01T14:53:16;1.50;;;1.40;;
10711;SDS011;5407;51.234;6.804;2023-03-01T14:55:46;1.60;;;1.50;;
10711;SDS011;5407;51.234;6.804;2023-03-01T14:58:15;1.48;;;1.38;;
10711;SDS011;5407;51.234;6.804;2023-03-01T15:00:47;1.67;;;1.58;;
10711;SDS011;5407;51.234;6.804;2023-03-01T15:03:18;1.60;;;1.50;;
10711;SDS011;5407;51.234;6.804;2023-03-01T15:05:52;1.35;;;1.25;;
10711;SDS011;5407;51.234;6.804;2023-03-01T15:08:20;1.25;;;1.15;;
10711;SDS011;5407;51.234;6.804;2023-03-01T15:10:57;1.73;;;1.60;;
10711;SDS011;5407;51.234;6.804;2023-03-01T15:13:26;1.60;;;1.50;;
10711;SDS011;5407;51.234;6.804;2023-03-01T15:16:01;1.40;;;1.30;;
10711;SDS011;5407;51.234;6.804;2023-03-01T15:18:34;1.40;;;1.30;;
10711;SDS011;5407;51.234;6.804;2023-03-01T15:21:05;1.50;;;1.40;;
10711;SDS011;5407;51.234;6.804;2023-03-01T15:23:34;1.55;;;1.45;;
10711;SDS011;5407;51.234;6.804;2023-03-01T15:26:03;1.42;;;1.33;;
10711;SDS011;5407;51.234;6.804;2023-03-01T15:28:30;1.90;;;1.70;;
10711;SDS011;5407;51.234;6.804;2023-03-01T15:31:00;1.50;;;1.40;;
10711;SDS011;5407;51.234;6.804;2023-03-01T15:33:32;1.60;;;1.50;;
10711;SDS011;5407;51.234;6.804;2023-03-01T15:36:02;1.40;;;1.30;;